Time;durP1;ratioP1;P1;durP2;ratioP2;P2;SDS_P1;SDS_P2;PMS_P1;PMS_P2;Temp;Humidity;BMP_temperature;BMP_pressure;BME280_temperature;BME280_humidity;BME280_pressure;Samples;Min_cycle;Max_cycle;Signal;HPM_P1;HPM_P2
2023/06/04 00:01:31;;;;;;;2.80;1.10;;;18.10;67.30;;;;;;10480238;28;20067;-65
2023/06/04 00:06:32;;;;;;;2.15;0.90;;;18.00;67.30;;;;;;10481470;28;20037;-65
2023/06/04 00:11:33;;;;;;;1.05;0.70;;;18.00;67.40;;;;;;10484322;28;20021;-65
2023/06/04 00:16:35;;;;;;;1.20;0.80;;;18.00;67.50;;;;;;10482481;28;20104;-65
2023/06/04 00:21:35;;;;;;;2.28;1.00;;;17.90;67.50;;;;;;10470223;28;20035;-65
2023/06/04 00:26:36;;;;;;;1.15;0.70;;;17.90;67.50;;;;;;10475795;28;20381;-65
2023/06/04 00:31:37;;;;;;;1.35;0.93;;;17.90;67.70;;;;;;10474474;28;20028;-65
2023/06/04 00:36:37;;;;;;;0.80;0.80;;;17.80;67.60;;;;;;10490863;28;20024;-65
2023/06/04 00:41:38;;;;;;;1.27;0.90;;;17.80;67.70;;;;;;10475068;28;20024;-65
2023/06/04 00:46:39;;;;;;;1.88;0.90;;;17.70;67.70;;;;;;10475822;28;20094;-66
2023/06/04 00:51:40;;;;;;;1.13;0.90;;;17.70;67.80;;;;;;10479513;28;20028;-65
2023/06/04 00:56:41;;;;;;;2.38;1.00;;;17.70;67.80;;;;;;10478435;28;20021;-64
2023/06/04 01:01:59;;;;;;;1.15;0.80;;;17.70;67.90;;;;;;10484371;28;20028;-66
2023/06/04 01:07:04;;;;;;;1.55;0.80;;;17.60;68.10;;;;;;10479019;28;20438;-65
2023/06/04 01:12:06;;;;;;;1.58;0.93;;;17.60;68.00;;;;;;10479914;28;20167;-65
2023/06/04 01:17:19;;;;;;;1.85;0.90;;;17.50;68.10;;;;;;10489352;28;20121;-65
2023/06/04 01:22:38;;;;;;;2.00;1.08;;;17.50;68.20;;;;;;10484923;28;20480;-65
2023/06/04 01:27:40;;;;;;;2.33;1.00;;;17.50;68.30;;;;;;10475094;28;20020;-66
2023/06/04 01:32:41;;;;;;;1.60;0.98;;;17.40;68.20;;;;;;10473995;28;20108;-65
2023/06/04 01:37:41;;;;;;;3.92;2.65;;;17.50;68.40;;;;;;10490296;28;20024;-65
2023/06/04 01:42:42;;;;;;;1.60;1.02;;;17.50;68.50;;;;;;10487459;28;20566;-65
2023/06/04 01:47:43;;;;;;;2.13;1.05;;;17.30;68.50;;;;;;10483172;28;20385;-65
2023/06/04 01:52:44;;;;;;;3.00;1.00;;;17.30;68.50;;;;;;10486462;28;20613;-65
2023/06/04 01:57:45;;;;;;;2.78;1.20;;;17.30;68.60;;;;;;10479175;28;20091;-65
2023/06/04 02:02:49;;;;;;;2.08;1.17;;;17.30;68.70;;;;;;10483035;28;20120;-64
2023/06/04 02:07:51;;;;;;;3.53;1.15;;;17.20;68.70;;;;;;10480475;28;20396;-65
2023/06/04 02:13:03;;;;;;;2.08;1.30;;;17.20;68.80;;;;;;10481612;28;20393;-65
2023/06/04 02:18:24;;;;;;;2.78;1.00;;;17.10;68.90;;;;;;10480489;28;20021;-65
2023/06/04 02:23:25;;;;;;;2.22;0.90;;;17.10;69.10;;;;;;10478737;28;20039;-65
2023/06/04 02:28:26;;;;;;;1.30;1.05;;;17.10;69.00;;;;;;10485139;28;20024;-65
2023/06/04 02:33:26;;;;;;;4.03;1.20;;;17.10;69.10;;;;;;10479641;28;20032;-65
2023/06/04 02:38:27;;;;;;;2.03;1.10;;;17.00;69.10;;;;;;10470724;28;20528;-65
2023/06/04 02:43:27;;;;;;;2.40;1.17;;;17.00;69.20;;;;;;10485134;28;20396;-65
2023/06/04 02:48:28;;;;;;;2.60;1.10;;;17.00;69.30;;;;;;10495924;28;20435;-65
2023/06/04 02:53:29;;;;;;;3.75;1.80;;;16.90;69.40;;;;;;10485543;28;20028;-65
2023/06/04 02:58:31;;;;;;;1.83;1.20;;;16.90;69.40;;;;;;10490754;28;20112;-65
2023/06/04 03:03:32;;;;;;;3.72;1.63;;;16.90;69.50;;;;;;10477581;28;20040;-64
2023/06/04 03:08:33;;;;;;;2.65;1.30;;;16.90;69.60;;;;;;10466434;28;20487;-64
2023/06/04 03:13:34;;;;;;;1.98;1.30;;;16.80;69.70;;;;;;10472195;28;20039;-63
2023/06/04 03:18:39;;;;;;;3.63;1.30;;;16.80;69.80;;;;;;10478039;28;20028;-64
2023/06/04 03:23:40;;;;;;;3.45;1.40;;;16.80;69.80;;;;;;10466652;28;20031;-65
2023/06/04 03:28:41;;;;;;;2.75;1.38;;;16.70;69.90;;;;;;10472049;28;20032;-65
2023/06/04 03:33:41;;;;;;;3.70;1.35;;;16.70;70.00;;;;;;10482913;28;20042;-65
2023/06/04 03:38:42;;;;;;;3.55;1.50;;;16.70;70.10;;;;;;10478085;28;20029;-64
2023/06/04 03:43:42;;;;;;;3.28;1.38;;;16.70;70.20;;;;;;10466955;28;20451;-65
2023/06/04 03:48:43;;;;;;;3.42;1.63;;;16.70;70.30;;;;;;10475969;28;20055;-65
2023/06/04 03:53:43;;;;;;;4.40;1.70;;;16.60;70.30;;;;;;10482283;28;20028;-65
2023/06/04 03:58:44;;;;;;;2.50;1.33;;;16.60;70.40;;;;;;10471826;28;20107;-65
2023/06/04 04:03:48;;;;;;;3.08;1.40;;;16.60;70.40;;;;;;10473306;28;20081;-65
2023/06/04 04:08:48;;;;;;;3.63;1.45;;;16.60;70.60;;;;;;10480391;28;20191;-65
2023/06/04 04:13:49;;;;;;;3.33;1.35;;;16.50;70.60;;;;;;10473558;28;20126;-64
2023/06/04 04:18:50;;;;;;;2.80;1.33;;;16.50;70.60;;;;;;10476190;28;20021;-64
2023/06/04 04:23:51;;;;;;;2.85;1.60;;;16.50;70.70;;;;;;10468399;28;20108;-65
2023/06/04 04:28:57;;;;;;;2.38;1.50;;;16.50;70.80;;;;;;10473983;28;20496;-65
2023/06/04 04:34:00;;;;;;;4.45;1.52;;;16.50;70.90;;;;;;10474029;28;20032;-64
2023/06/04 04:39:00;;;;;;;6.00;1.30;;;16.50;71.00;;;;;;10477723;28;20036;-65
2023/06/04 04:44:05;;;;;;;1.70;1.23;;;16.50;71.00;;;;;;10473342;28;20031;-64
2023/06/04 04:49:05;;;;;;;2.70;1.23;;;16.50;71.10;;;;;;10477296;28;20106;-64
2023/06/04 04:54:10;;;;;;;3.40;1.33;;;16.40;71.10;;;;;;10476186;28;20489;-64
2023/06/04 04:59:11;;;;;;;3.63;1.30;;;16.40;71.10;;;;;;10470670;28;20021;-65
2023/06/04 05:04:11;;;;;;;1.70;1.20;;;16.40;71.20;;;;;;10490296;28;20512;-65
2023/06/04 05:09:12;;;;;;;2.92;1.50;;;16.40;71.20;;;;;;10476543;28;20056;-64
2023/06/04 05:14:13;;;;;;;4.40;1.27;;;16.40;71.30;;;;;;10484372;28;20028;-65
2023/06/04 05:19:13;;;;;;;2.67;1.27;;;16.40;71.40;;;;;;10486280;28;20028;-64
2023/06/04 05:24:14;;;;;;;2.13;1.25;;;16.40;71.40;;;;;;10484606;28;20205;-65
2023/06/04 05:29:15;;;;;;;2.22;1.20;;;16.40;71.40;;;;;;10481875;28;20563;-65
2023/06/04 05:34:16;;;;;;;3.67;2.47;;;16.60;71.60;;;;;;10482036;28;20323;-64
2023/06/04 05:39:18;;;;;;;5.43;1.10;;;16.40;71.50;;;;;;10478632;28;20028;-64
2023/06/04 05:44:18;;;;;;;3.05;1.23;;;16.40;71.50;;;;;;10481851;28;20500;-64
2023/06/04 05:49:20;;;;;;;3.38;1.45;;;16.40;71.60;;;;;;10482701;28;20032;-63
2023/06/04 05:54:20;;;;;;;4.00;1.30;;;16.40;71.70;;;;;;10476380;28;20432;-65
2023/06/04 05:59:21;;;;;;;3.35;1.27;;;16.40;71.70;;;;;;10477966;28;20029;-64
2023/06/04 06:04:21;;;;;;;4.95;1.20;;;16.40;71.80;;;;;;10470063;28;20483;-64
2023/06/04 06:09:22;;;;;;;1.92;1.10;;;16.30;71.80;;;;;;10482155;28;20031;-64
2023/06/04 06:14:23;;;;;;;4.60;1.40;;;16.40;71.90;;;;;;10481560;28;20099;-65
2023/06/04 06:19:23;;;;;;;3.25;1.20;;;16.40;72.70;;;;;;10482850;28;20184;-65
2023/06/04 06:24:25;;;;;;;2.03;0.93;;;16.40;72.10;;;;;;10483513;28;20035;-64
2023/06/04 06:29:25;;;;;;;3.08;1.77;;;16.30;72.20;;;;;;10484891;28;20036;-65
2023/06/04 06:34:26;;;;;;;2.83;1.25;;;16.40;72.40;;;;;;10479493;28;20480;-64
2023/06/04 06:39:27;;;;;;;3.10;1.23;;;16.40;72.50;;;;;;10477743;28;20047;-64
2023/06/04 06:44:27;;;;;;;2.13;1.00;;;16.40;72.60;;;;;;10479032;28;20025;-64
2023/06/04 06:49:28;;;;;;;1.80;1.00;;;16.40;72.60;;;;;;10489908;28;20115;-65
2023/06/04 06:54:29;;;;;;;2.53;1.25;;;16.40;72.70;;;;;;10483426;28;20323;-64
2023/06/04 06:59:30;;;;;;;2.60;0.95;;;16.40;72.90;;;;;;10481925;28;20028;-64
2023/06/04 07:04:30;;;;;;;3.55;1.20;;;16.40;72.90;;;;;;10487199;28;20025;-65
2023/06/04 07:09:31;;;;;;;2.33;1.40;;;16.40;72.80;;;;;;10482989;28;20024;-65
2023/06/04 07:14:32;;;;;;;3.28;1.15;;;16.50;72.90;;;;;;10479880;28;20024;-65
2023/06/04 07:19:32;;;;;;;2.60;1.30;;;16.50;72.90;;;;;;10477570;28;20036;-64
2023/06/04 07:24:33;;;;;;;1.33;0.90;;;16.60;73.00;;;;;;10476218;28;20095;-64
2023/06/04 07:29:33;;;;;;;2.78;1.27;;;16.50;73.00;;;;;;10481748;28;20027;-63
2023/06/04 07:34:34;;;;;;;2.35;1.08;;;16.60;73.10;;;;;;10477278;28;20036;-64
2023/06/04 07:39:35;;;;;;;3.05;1.02;;;16.60;73.10;;;;;;10475095;28;20286;-64
2023/06/04 07:44:38;;;;;;;2.15;1.10;;;16.60;73.00;;;;;;10471935;28;20034;-64
2023/06/04 07:49:38;;;;;;;1.30;0.80;;;16.70;73.20;;;;;;10473386;28;20020;-63
2023/06/04 07:54:41;;;;;;;2.25;0.93;;;16.70;73.70;;;;;;10486210;28;20024;-64
2023/06/04 07:59:42;;;;;;;1.55;0.90;;;16.80;73.20;;;;;;10473105;28;20488;-65
2023/06/04 08:04:42;;;;;;;2.10;0.90;;;16.70;73.20;;;;;;10477609;28;20039;-64
2023/06/04 08:09:44;;;;;;;2.95;0.90;;;16.80;73.30;;;;;;10472840;28;20032;-65
2023/06/04 08:14:45;;;;;;;2.00;0.82;;;16.80;73.20;;;;;;10474023;28;20234;-64
2023/06/04 08:19:46;;;;;;;2.55;0.98;;;16.80;73.20;;;;;;10475790;28;20027;-64
2023/06/04 08:24:46;;;;;;;2.60;0.98;;;16.80;73.30;;;;;;10473492;28;20530;-64
2023/06/04 08:29:47;;;;;;;2.30;0.90;;;16.90;73.30;;;;;;10470352;28;20036;-63
2023/06/04 08:34:48;;;;;;;1.10;0.80;;;16.90;73.30;;;;;;10475523;28;20399;-64
2023/06/04 08:39:48;;;;;;;2.83;0.70;;;17.10;73.50;;;;;;10484660;28;20030;-65
2023/06/04 08:44:55;;;;;;;2.78;1.08;;;17.00;73.50;;;;;;10474665;28;20052;-64
2023/06/04 08:50:00;;;;;;;1.77;0.90;;;17.10;73.60;;;;;;10486654;28;20029;-64
2023/06/04 08:55:02;;;;;;;2.25;1.00;;;17.10;73.60;;;;;;10473865;28;20028;-64
2023/06/04 09:00:05;;;;;;;2.35;1.00;;;17.10;73.50;;;;;;10476880;28;20480;-64
2023/06/04 09:05:10;;;;;;;3.78;1.10;;;17.20;73.50;;;;;;10485956;28;20501;-64
2023/06/04 09:10:15;;;;;;;4.47;1.00;;;17.20;73.40;;;;;;10479360;28;20032;-63
2023/06/04 09:15:15;;;;;;;1.38;1.05;;;17.30;73.50;;;;;;10481535;28;20814;-64
2023/06/04 09:20:24;;;;;;;1.73;0.90;;;17.40;73.60;;;;;;10481164;28;20062;-65
2023/06/04 09:25:26;;;;;;;3.80;1.17;;;17.40;73.70;;;;;;10478742;28;20044;-65
2023/06/04 09:30:27;;;;;;;0.82;0.70;;;17.40;73.50;;;;;;10473544;28;20706;-64
2023/06/04 09:35:27;;;;;;;3.17;1.10;;;17.50;73.90;;;;;;10471714;28;20017;-65
2023/06/04 09:40:37;;;;;;;1.50;1.05;;;17.50;73.90;;;;;;10484375;28;20028;-64
2023/06/04 09:45:38;;;;;;;1.40;1.00;;;17.60;74.10;;;;;;10479793;28;20043;-65
2023/06/04 09:50:41;;;;;;;2.05;0.93;;;17.70;74.00;;;;;;10476264;28;20392;-64
2023/06/04 09:55:42;;;;;;;3.25;1.05;;;17.80;74.30;;;;;;10476270;28;20021;-65
2023/06/04 10:00:45;;;;;;;1.55;0.80;;;17.80;74.00;;;;;;10479080;28;20573;-65
2023/06/04 10:05:46;;;;;;;3.05;1.10;;;17.80;74.00;;;;;;10475793;28;20511;-64
2023/06/04 10:10:48;;;;;;;1.13;1.00;;;17.90;73.90;;;;;;10479010;28;20045;-65
2023/06/04 10:15:49;;;;;;;2.75;0.88;;;17.90;73.80;;;;;;10487856;28;20020;-64
2023/06/04 10:20:52;;;;;;;2.17;0.90;;;18.10;73.90;;;;;;10477000;28;20475;-65
2023/06/04 10:25:53;;;;;;;3.75;1.23;;;18.00;74.00;;;;;;10482051;28;20024;-65
2023/06/04 10:30:54;;;;;;;3.20;0.95;;;18.10;73.90;;;;;;10484459;28;20407;-65
2023/06/04 10:35:56;;;;;;;4.30;1.40;;;18.20;74.00;;;;;;10481474;28;20024;-65
2023/06/04 10:40:56;;;;;;;1.60;1.23;;;18.20;74.30;;;;;;10480883;28;20043;-65
2023/06/04 10:45:57;;;;;;;2.38;1.13;;;18.30;74.40;;;;;;10475975;28;20047;-65
2023/06/04 10:50:57;;;;;;;4.10;1.10;;;18.30;74.60;;;;;;10484984;28;20028;-65
2023/06/04 10:55:58;;;;;;;3.55;1.15;;;18.40;74.90;;;;;;10483430;28;20027;-64
2023/06/04 11:00:59;;;;;;;7.78;1.40;;;18.40;74.70;;;;;;10477437;28;20601;-65
2023/06/04 11:06:00;;;;;;;2.60;1.20;;;18.50;75.10;;;;;;10482942;28;20037;-65
2023/06/04 11:11:11;;;;;;;3.50;1.30;;;18.60;74.90;;;;;;10482960;28;20499;-66
2023/06/04 11:16:19;;;;;;;4.95;1.40;;;18.60;75.60;;;;;;10482291;28;20028;-64
2023/06/04 11:21:20;;;;;;;4.57;1.70;;;18.70;75.40;;;;;;10474709;28;20393;-65
2023/06/04 11:26:21;;;;;;;2.33;1.02;;;18.70;75.40;;;;;;10484415;28;20174;-72
2023/06/04 11:31:22;;;;;;;2.45;1.10;;;18.90;74.10;;;;;;10481266;28;20037;-66
2023/06/04 11:36:27;;;;;;;3.50;1.27;;;19.00;74.30;;;;;;10478943;28;20384;-65
2023/06/04 11:41:30;;;;;;;5.35;1.40;;;19.00;74.60;;;;;;10476748;28;20029;-66
2023/06/04 11:46:35;;;;;;;5.03;1.40;;;19.10;74.30;;;;;;10472895;28;20025;-66
2023/06/04 11:51:35;;;;;;;1.88;1.00;;;19.10;74.10;;;;;;10487050;28;20492;-66
2023/06/04 11:56:36;;;;;;;4.75;1.60;;;19.20;73.90;;;;;;10470429;28;20029;-66
2023/06/04 12:01:37;;;;;;;5.85;1.42;;;19.20;73.90;;;;;;10474539;28;20101;-66
2023/06/04 12:06:38;;;;;;;3.03;1.30;;;19.20;74.30;;;;;;10477352;28;20116;-66
2023/06/04 12:11:41;;;;;;;2.60;1.20;;;19.40;74.40;;;;;;10482701;28;20037;-65
2023/06/04 12:16:41;;;;;;;3.85;1.38;;;19.40;74.50;;;;;;10481163;28;20024;-67
2023/06/04 12:21:43;;;;;;;4.07;1.50;;;19.40;74.70;;;;;;10486747;28;20016;-66
2023/06/04 12:26:47;;;;;;;5.82;1.40;;;19.60;75.10;;;;;;10484592;28;20020;-66
2023/06/04 12:31:48;;;;;;;6.65;1.48;;;19.60;75.10;;;;;;10478101;28;20385;-66
2023/06/04 12:36:48;;;;;;;3.58;1.20;;;19.80;75.20;;;;;;10468542;28;20028;-66
2023/06/04 12:41:49;;;;;;;2.88;1.17;;;19.80;74.90;;;;;;10486108;28;20024;-66
2023/06/04 12:46:50;;;;;;;4.80;1.63;;;19.90;74.70;;;;;;10468479;28;20036;-66
2023/06/04 12:51:50;;;;;;;4.85;1.60;;;19.90;74.80;;;;;;10479754;28;20023;-65
2023/06/04 12:56:51;;;;;;;5.50;1.30;;;20.00;74.90;;;;;;10478991;28;20039;-67
2023/06/04 13:01:52;;;;;;;5.57;1.73;;;20.00;75.00;;;;;;10482362;28;20033;-65
2023/06/04 13:06:58;;;;;;;5.68;1.30;;;20.10;74.90;;;;;;10488931;28;20028;-66
2023/06/04 13:12:00;;;;;;;4.43;1.33;;;20.10;74.70;;;;;;10482745;28;20028;-66
2023/06/04 13:17:00;;;;;;;3.40;1.85;;;20.20;74.50;;;;;;10475797;28;20028;-67
2023/06/04 13:22:01;;;;;;;4.28;1.42;;;20.40;75.10;;;;;;10485169;28;20090;-66
2023/06/04 13:27:02;;;;;;;3.00;1.25;;;20.40;74.20;;;;;;10492835;28;20020;-67
2023/06/04 13:32:03;;;;;;;2.83;1.17;;;20.50;74.10;;;;;;10486946;28;20461;-66
2023/06/04 13:37:04;;;;;;;3.40;1.30;;;20.50;74.10;;;;;;10484055;28;20038;-66
2023/06/04 13:42:05;;;;;;;4.03;1.30;;;20.70;74.00;;;;;;10481472;28;20028;-66
2023/06/04 13:47:05;;;;;;;3.72;1.73;;;20.70;73.80;;;;;;10482738;28;20033;-67
2023/06/04 13:52:06;;;;;;;1.30;1.10;;;20.80;73.80;;;;;;10478293;28;20552;-67
2023/06/04 13:57:07;;;;;;;2.38;1.15;;;20.90;73.50;;;;;;10479935;28;20107;-67
2023/06/04 14:02:07;;;;;;;2.45;1.17;;;21.00;73.50;;;;;;10471939;28;20028;-66
2023/06/04 14:07:08;;;;;;;3.58;1.30;;;21.00;73.40;;;;;;10473019;28;20827;-67
2023/06/04 14:12:08;;;;;;;2.80;1.45;;;21.10;73.50;;;;;;10477207;28;20035;-67
2023/06/04 14:17:09;;;;;;;2.35;1.20;;;21.20;73.20;;;;;;10474786;28;20133;-67
2023/06/04 14:22:13;;;;;;;3.00;1.40;;;21.30;73.10;;;;;;10475800;28;20025;-67
2023/06/04 14:27:14;;;;;;;2.17;1.10;;;21.40;73.10;;;;;;10471380;28;20025;-67
2023/06/04 14:32:15;;;;;;;2.08;1.30;;;21.50;73.00;;;;;;10474030;28;20039;-67
2023/06/04 14:37:16;;;;;;;3.05;1.23;;;21.50;73.00;;;;;;10473076;28;20605;-67
2023/06/04 14:42:16;;;;;;;3.25;1.45;;;21.60;73.00;;;;;;10479081;28;20282;-67
2023/06/04 14:47:17;;;;;;;2.70;1.02;;;21.70;73.00;;;;;;10470088;28;20021;-66
2023/06/04 14:52:17;;;;;;;3.45;1.15;;;21.90;72.80;;;;;;10473255;28;20514;-68
2023/06/04 14:57:19;;;;;;;1.85;1.17;;;21.90;72.60;;;;;;10474140;28;20038;-68
2023/06/04 15:02:20;;;;;;;2.15;1.00;;;22.00;72.60;;;;;;10477654;28;20493;-67
2023/06/04 15:07:22;;;;;;;2.50;1.15;;;22.10;72.60;;;;;;10475850;28;20017;-68
2023/06/04 15:12:22;;;;;;;2.22;1.00;;;22.20;72.60;;;;;;10467947;28;20060;-67
2023/06/04 15:17:23;;;;;;;2.67;1.20;;;22.30;72.50;;;;;;10471502;28;20028;-67
2023/06/04 15:22:24;;;;;;;6.55;1.23;;;22.40;72.30;;;;;;10474011;28;20042;-67
2023/06/04 15:27:25;;;;;;;1.38;1.08;;;22.40;72.20;;;;;;10475896;28;20178;-68
2023/06/04 15:32:26;;;;;;;2.38;1.02;;;22.50;72.20;;;;;;10480299;28;20118;-68
2023/06/04 15:37:26;;;;;;;1.83;1.02;;;22.60;72.20;;;;;;10473414;28;20027;-68
2023/06/04 15:42:27;;;;;;;1.73;0.88;;;22.70;72.10;;;;;;10475215;28;20544;-67
2023/06/04 15:47:27;;;;;;;1.17;0.88;;;22.70;72.20;;;;;;10468243;28;20020;-68
2023/06/04 15:52:28;;;;;;;1.90;1.00;;;22.70;72.20;;;;;;10469155;28;20079;-68
2023/06/04 15:57:29;;;;;;;1.60;1.10;;;22.60;72.40;;;;;;10470788;28;20036;-68
2023/06/04 16:02:30;;;;;;;2.95;1.00;;;22.60;72.70;;;;;;10470183;28;20013;-69
2023/06/04 16:07:35;;;;;;;2.05;1.00;;;22.50;72.90;;;;;;10470894;28;20029;-68
2023/06/04 16:12:35;;;;;;;1.63;1.00;;;22.50;73.10;;;;;;10472035;28;20434;-68
2023/06/04 16:17:36;;;;;;;2.45;1.20;;;22.40;73.30;;;;;;10476325;28;20045;-68
2023/06/04 16:22:37;;;;;;;2.70;1.10;;;22.30;73.50;;;;;;10473783;28;20090;-67
2023/06/04 16:27:37;;;;;;;2.00;1.15;;;22.30;73.70;;;;;;10472642;28;20452;-66
2023/06/04 16:32:38;;;;;;;2.60;1.13;;;22.20;73.70;;;;;;10469184;28;20408;-67
2023/06/04 16:37:39;;;;;;;1.52;1.00;;;22.10;74.00;;;;;;10466603;28;20020;-67
2023/06/04 16:42:39;;;;;;;3.95;1.20;;;22.10;74.20;;;;;;10469256;28;21415;-66
2023/06/04 16:47:42;;;;;;;2.42;1.17;;;22.00;74.30;;;;;;10469124;28;20052;-66
2023/06/04 16:52:43;;;;;;;2.33;1.20;;;21.90;74.30;;;;;;10479028;28;20390;-66
2023/06/04 16:57:43;;;;;;;3.13;1.20;;;21.90;74.50;;;;;;10472690;28;20060;-66
2023/06/04 17:02:44;;;;;;;1.55;1.00;;;21.80;74.60;;;;;;10479039;28;20024;-66
2023/06/04 17:07:44;;;;;;;3.65;1.30;;;21.80;74.70;;;;;;10477937;28;20017;-66
2023/06/04 17:12:45;;;;;;;1.60;1.10;;;21.70;74.70;;;;;;10488555;28;20074;-67
2023/06/04 17:17:48;;;;;;;3.70;1.15;;;21.80;74.90;;;;;;10485377;28;20720;-67
2023/06/04 17:22:49;;;;;;;2.13;1.20;;;21.60;74.80;;;;;;10480958;28;21030;-66
2023/06/04 17:27:50;;;;;;;2.00;1.20;;;21.60;75.00;;;;;;10478779;28;20028;-66
2023/06/04 17:32:51;;;;;;;2.22;1.33;;;21.60;75.00;;;;;;10479353;28;20443;-67
2023/06/04 17:37:51;;;;;;;2.35;1.10;;;21.50;75.00;;;;;;10483800;28;20024;-67
2023/06/04 17:42:52;;;;;;;2.58;1.25;;;21.50;75.00;;;;;;10470432;28;20036;-67
2023/06/04 17:47:53;;;;;;;1.63;1.00;;;21.60;75.00;;;;;;10477716;28;20029;-67
2023/06/04 17:52:53;;;;;;;4.47;1.20;;;21.40;75.00;;;;;;10479908;28;20719;-66
2023/06/04 17:57:55;;;;;;;3.72;1.33;;;21.30;75.20;;;;;;10479546;28;20499;-66
2023/06/04 18:02:56;;;;;;;3.40;1.30;;;21.40;75.10;;;;;;10487159;28;20031;-67
2023/06/04 18:07:56;;;;;;;3.10;1.17;;;21.20;75.10;;;;;;10484080;28;20535;-67
2023/06/04 18:12:57;;;;;;;1.95;1.33;;;21.20;75.10;;;;;;10481934;28;20035;-65
2023/06/04 18:17:57;;;;;;;2.45;1.45;;;21.20;75.10;;;;;;10482284;28;20082;-65
2023/06/04 18:22:58;;;;;;;2.63;1.10;;;21.10;75.20;;;;;;10482346;28;20020;-65
2023/06/04 18:27:59;;;;;;;2.30;1.10;;;21.00;75.30;;;;;;10487272;28;20027;-66
2023/06/04 18:32:59;;;;;;;2.55;1.67;;;20.90;75.40;;;;;;10471052;28;20396;-66
2023/06/04 18:38:00;;;;;;;4.00;1.50;;;20.90;75.30;;;;;;10497310;28;20038;-66
2023/06/04 18:43:00;;;;;;;3.47;1.23;;;20.90;75.10;;;;;;10489820;28;20511;-66
2023/06/04 18:48:01;;;;;;;1.42;1.05;;;20.80;75.20;;;;;;10493935;28;20020;-66
2023/06/04 18:53:01;;;;;;;4.07;1.27;;;20.80;75.30;;;;;;10490756;28;20027;-67
2023/06/04 18:58:02;;;;;;;3.30;1.52;;;20.70;75.30;;;;;;10487317;28;20024;-65
2023/06/04 19:03:03;;;;;;;2.90;1.38;;;20.70;75.40;;;;;;10469949;28;20104;-66
2023/06/04 19:08:03;;;;;;;3.13;1.20;;;20.60;75.40;;;;;;10471919;28;20049;-66
2023/06/04 19:13:04;;;;;;;3.63;1.70;;;20.60;75.40;;;;;;10479623;28;20054;-66
2023/06/04 19:18:06;;;;;;;2.85;1.30;;;20.50;75.30;;;;;;10476514;28;20107;-66
2023/06/04 19:23:06;;;;;;;1.88;1.23;;;20.40;75.40;;;;;;10470938;28;20025;-66
2023/06/04 19:28:08;;;;;;;1.67;1.33;;;20.30;75.50;;;;;;10471417;28;20044;-66
2023/06/04 19:33:09;;;;;;;2.35;1.13;;;20.30;75.50;;;;;;10478920;28;20047;-66
2023/06/04 19:38:10;;;;;;;3.15;1.20;;;20.20;75.50;;;;;;10478485;28;20070;-65
2023/06/04 19:43:10;;;;;;;1.58;1.23;;;20.20;75.60;;;;;;10465819;28;20124;-66
2023/06/04 19:48:11;;;;;;;3.28;1.60;;;20.10;75.60;;;;;;10474344;28;20029;-66
2023/06/04 19:53:11;;;;;;;2.72;1.60;;;20.10;75.60;;;;;;10476109;28;20024;-66
2023/06/04 19:58:14;;;;;;;2.22;1.30;;;20.00;75.60;;;;;;10471355;28;20040;-66
2023/06/04 20:03:14;;;;;;;1.70;1.30;;;19.90;75.60;;;;;;10478155;28;20025;-66
2023/06/04 20:08:16;;;;;;;2.92;1.33;;;19.90;75.60;;;;;;10476687;28;20423;-65
2023/06/04 20:13:17;;;;;;;3.15;1.50;;;19.80;75.60;;;;;;10482342;28;20131;-66
2023/06/04 20:18:17;;;;;;;1.35;1.20;;;19.80;75.60;;;;;;10476407;28;20543;-66
2023/06/04 20:23:18;;;;;;;2.40;1.50;;;19.70;75.60;;;;;;10488584;28;21591;-66
2023/06/04 20:28:19;;;;;;;3.45;1.35;;;19.70;75.60;;;;;;10478459;28;20122;-66
2023/06/04 20:33:21;;;;;;;3.35;1.80;;;19.60;75.60;;;;;;10484432;28;20024;-66
2023/06/04 20:38:21;;;;;;;2.35;1.52;;;19.60;75.60;;;;;;10486848;28;20036;-66
2023/06/04 20:43:22;;;;;;;2.65;1.40;;;19.50;75.60;;;;;;10488705;28;20085;-66
2023/06/04 20:48:23;;;;;;;3.20;1.45;;;19.50;75.60;;;;;;10494822;28;20028;-66
2023/06/04 20:53:23;;;;;;;2.15;1.20;;;19.40;75.50;;;;;;10492310;28;20099;-66
2023/06/04 20:58:24;;;;;;;4.32;1.60;;;19.40;75.50;;;;;;10493085;28;20032;-67
2023/06/04 21:03:26;;;;;;;3.10;1.65;;;19.30;75.40;;;;;;10492475;28;20420;-68
2023/06/04 21:08:27;;;;;;;1.55;1.40;;;19.30;75.50;;;;;;10487932;28;20035;-68
2023/06/04 21:13:27;;;;;;;3.17;1.55;;;19.20;75.50;;;;;;10489683;28;20488;-68
2023/06/04 21:18:28;;;;;;;2.60;1.58;;;19.20;75.50;;;;;;10486655;28;20020;-68
2023/06/04 21:23:29;;;;;;;2.95;1.67;;;19.10;75.50;;;;;;10478513;28;20438;-68
2023/06/04 21:28:29;;;;;;;3.15;1.58;;;19.10;75.50;;;;;;10499674;28;20071;-68
2023/06/04 21:33:30;;;;;;;2.47;1.65;;;19.00;75.50;;;;;;10487129;28;20112;-68
2023/06/04 21:38:30;;;;;;;3.75;2.10;;;19.00;75.50;;;;;;10493878;28;20024;-68
2023/06/04 21:43:31;;;;;;;2.35;1.45;;;19.00;75.50;;;;;;10492356;28;20028;-68
2023/06/04 21:48:32;;;;;;;3.90;1.90;;;18.80;75.40;;;;;;10477959;28;20111;-68
2023/06/04 21:53:32;;;;;;;2.28;1.77;;;18.70;75.30;;;;;;10481841;28;20109;-68
2023/06/04 21:58:33;;;;;;;2.75;1.80;;;18.80;75.50;;;;;;10490717;28;20028;-68
2023/06/04 22:03:34;;;;;;;3.10;1.90;;;18.70;75.40;;;;;;10480532;28;20060;-68
2023/06/04 22:08:34;;;;;;;3.90;1.80;;;18.70;75.40;;;;;;10483678;28;20039;-68
2023/06/04 22:13:36;;;;;;;3.85;2.22;;;18.60;75.40;;;;;;10498363;28;20041;-68
2023/06/04 22:18:37;;;;;;;3.78;2.17;;;18.60;75.40;;;;;;10492691;28;20054;-68
2023/06/04 22:23:38;;;;;;;3.13;2.05;;;18.60;75.50;;;;;;10492527;28;20475;-68
2023/06/04 22:28:39;;;;;;;2.53;1.95;;;18.50;75.40;;;;;;10482838;28;20024;-68
2023/06/04 22:33:40;;;;;;;3.33;1.80;;;18.50;75.50;;;;;;10487440;28;20021;-68
2023/06/04 22:38:40;;;;;;;3.63;2.13;;;18.40;75.50;;;;;;10485985;28;20017;-68
2023/06/04 22:43:41;;;;;;;2.78;1.70;;;18.40;75.50;;;;;;10478424;28;20013;-68
2023/06/04 22:48:41;;;;;;;3.40;2.10;;;18.30;75.50;;;;;;10496860;28;20028;-68
2023/06/04 22:53:42;;;;;;;2.63;1.80;;;18.30;75.50;;;;;;10473448;28;20155;-68
2023/06/04 22:58:43;;;;;;;3.22;2.05;;;18.20;75.50;;;;;;10495848;28;20107;-68
2023/06/04 23:03:44;;;;;;;4.07;2.10;;;18.20;75.50;;;;;;10484312;28;20217;-68
2023/06/04 23:08:45;;;;;;;2.25;1.83;;;18.20;75.60;;;;;;10486624;28;20404;-68
2023/06/04 23:13:46;;;;;;;2.58;1.90;;;18.10;75.50;;;;;;10480483;28;20031;-68
2023/06/04 23:18:46;;;;;;;2.90;1.88;;;18.10;75.60;;;;;;10491700;28;20492;-68
2023/06/04 23:23:47;;;;;;;4.32;2.35;;;18.00;75.50;;;;;;10482419;28;20715;-68
2023/06/04 23:28:47;;;;;;;2.10;1.90;;;18.10;75.60;;;;;;10475699;28;20633;-68
2023/06/04 23:33:48;;;;;;;3.42;2.20;;;18.00;75.50;;;;;;10476572;28;20545;-67
2023/06/04 23:38:49;;;;;;;3.58;2.53;;;17.90;75.50;;;;;;10494846;28;20302;-68
2023/06/04 23:43:49;;;;;;;3.20;1.92;;;17.90;75.50;;;;;;10496985;28;20024;-68
2023/06/04 23:48:50;;;;;;;4.43;2.22;;;17.90;75.50;;;;;;10478957;28;20061;-68
2023/06/04 23:53:51;;;;;;;2.47;1.92;;;17.80;75.50;;;;;;10483376;28;20068;-68
2023/06/04 23:58:52;;;;;;;4.05;2.33;;;17.80;75.50;;;;;;10488941;28;20028;-67
